createdAt,value
2019-05-22T00:01:59.943Z,55.53
2019-05-22T00:04:41.875Z,49.60
2019-05-22T00:07:14.621Z,53.07
2019-05-22T00:09:50.215Z,48.37
2019-05-22T00:15:25.644Z,52.90
2019-05-22T00:18:07.238Z,50.07
2019-05-22T00:20:43.952Z,59.30
2019-05-22T00:23:24.022Z,51.97
2019-05-22T00:25:55.333Z,54.37
2019-05-22T00:28:27.774Z,56.90
2019-05-22T00:30:59.372Z,64.50
2019-05-22T00:33:55.703Z,61.03
2019-05-22T00:36:33.337Z,66.77
2019-05-22T00:39:09.040Z,62.77
2019-05-22T00:41:53.597Z,42.47
2019-05-22T00:45:42.318Z,47.73
2019-05-22T00:48:28.099Z,42.03
2019-05-22T00:53:14.294Z,49.97
2019-05-22T01:05:51.212Z,56.13
2019-05-22T01:17:45.648Z,50.97
2019-05-22T01:19:20.641Z,44.50
2019-05-22T01:22:07.945Z,45.47
2019-05-22T01:25:17.369Z,44.80
2019-05-22T01:28:10.189Z,42.27
2019-05-22T01:31:15.127Z,39.50
2019-05-22T01:34:30.708Z,40.30
2019-05-22T01:37:56.539Z,37.67
2019-05-22T01:41:13.444Z,44.20
2019-05-22T01:43:42.702Z,35.50
2019-05-22T01:46:45.615Z,31.47
2019-05-22T01:49:53.978Z,32.57
2019-05-22T01:52:40.437Z,24.47
2019-05-22T01:58:24.338Z,32.27
2019-05-22T02:01:23.438Z,28.83
2019-05-22T02:03:59.747Z,28.80
2019-05-22T02:06:35.372Z,25.73
2019-05-22T02:09:33.839Z,25.13
2019-05-22T02:12:18.291Z,21.53
2019-05-22T02:14:51.048Z,21.27
2019-05-22T02:17:26.664Z,21.20
2019-05-22T02:19:57.283Z,20.37
2019-05-22T02:22:30.169Z,20.07
2019-05-22T02:25:00.884Z,19.27
2019-05-22T02:27:31.296Z,17.17
2019-05-22T02:30:01.921Z,20.63
2019-05-22T02:32:34.699Z,18.37
2019-05-22T02:35:05.939Z,17.00
2019-05-22T02:37:36.933Z,16.43
2019-05-22T02:40:13.909Z,16.30
2019-05-22T02:42:44.593Z,20.27
2019-05-22T02:45:16.577Z,17.63
2019-05-22T02:47:47.281Z,16.77
2019-05-22T02:50:22.161Z,18.37
2019-05-22T02:52:52.660Z,18.47
2019-05-22T02:55:22.969Z,17.23
2019-05-22T02:57:55.420Z,14.90
2019-05-22T03:00:33.201Z,18.20
2019-05-22T03:03:05.572Z,18.40
2019-05-22T03:05:36.107Z,16.10
2019-05-22T03:08:08.638Z,17.13
2019-05-22T03:10:41.247Z,16.23
2019-05-22T03:13:12.581Z,18.33
2019-05-22T03:15:43.128Z,20.00
2019-05-22T03:18:13.773Z,16.27
2019-05-22T03:20:46.728Z,17.67
2019-05-22T03:23:38.633Z,17.23
2019-05-22T03:26:10.815Z,18.53
2019-05-22T03:28:42.510Z,17.60
2019-05-22T03:31:13.938Z,17.90
2019-05-22T03:33:46.795Z,18.23
2019-05-22T03:36:19.151Z,17.53
2019-05-22T03:38:56.256Z,22.73
2019-05-22T03:41:28.070Z,22.43
2019-05-22T03:43:59.505Z,22.77
2019-05-22T03:46:38.563Z,21.93
2019-05-22T03:49:28.003Z,21.90
2019-05-22T03:51:52.011Z,19.07
2019-05-22T03:54:22.574Z,19.63
2019-05-22T03:57:05.884Z,24.57
2019-05-22T03:59:46.593Z,24.77
2019-05-22T04:02:19.423Z,21.97
2019-05-22T04:04:56.820Z,26.00
2019-05-22T04:07:28.915Z,19.43
2019-05-22T04:10:00.844Z,24.73
2019-05-22T04:12:32.658Z,22.93
2019-05-22T04:15:04.248Z,22.57
2019-05-22T04:17:36.145Z,21.83
2019-05-22T04:20:11.463Z,20.07
2019-05-22T04:22:41.902Z,22.07
2019-05-22T04:25:25.527Z,21.13
2019-05-22T04:28:01.165Z,19.87
2019-05-22T04:30:32.203Z,17.77
2019-05-22T04:33:12.463Z,21.20
2019-05-22T04:35:43.734Z,20.20
2019-05-22T04:38:17.314Z,21.40
2019-05-22T04:41:18.533Z,20.63
2019-05-22T04:43:55.505Z,19.30
2019-05-22T04:46:30.767Z,18.80
2019-05-22T04:49:03.089Z,17.20
2019-05-22T04:51:54.775Z,18.27
2019-05-22T04:54:26.718Z,18.60
2019-05-22T04:57:09.776Z,17.37
2019-05-22T04:59:43.455Z,17.93
2019-05-22T05:02:15.650Z,20.67
2019-05-22T05:04:47.708Z,16.50
2019-05-22T05:07:18.231Z,18.53
2019-05-22T05:09:52.760Z,19.67
2019-05-22T05:12:28.138Z,18.03
2019-05-22T05:14:58.929Z,15.57
2019-05-22T05:17:29.720Z,20.80
2019-05-22T05:20:03.393Z,16.43
2019-05-22T05:22:44.970Z,15.10
2019-05-22T05:25:16.780Z,14.87
2019-05-22T05:27:47.979Z,13.87
2019-05-22T05:30:26.159Z,12.87
2019-05-22T05:32:59.133Z,14.80
2019-05-22T05:35:33.497Z,12.37
2019-05-22T05:38:05.588Z,12.47
2019-05-22T05:40:43.025Z,11.10
2019-05-22T05:43:19.693Z,11.93
2019-05-22T05:45:52.192Z,12.27
2019-05-22T05:48:23.677Z,10.50
2019-05-22T05:51:29.352Z,10.10
2019-05-22T05:54:20.583Z,9.03
2019-05-22T05:56:53.673Z,13.23
2019-05-22T05:59:26.929Z,12.10
2019-05-22T06:01:58.080Z,8.33
2019-05-22T06:04:35.522Z,9.73
2019-05-22T06:07:21.201Z,8.80
2019-05-22T06:10:29.630Z,9.30
2019-05-22T06:13:00.792Z,8.90
2019-05-22T06:16:28.834Z,6.57
2019-05-22T06:18:59.618Z,6.60
2019-05-22T06:21:31.313Z,7.97
2019-05-22T06:24:25.581Z,7.20
2019-05-22T06:27:25.818Z,6.03
2019-05-22T06:30:08.693Z,6.73
2019-05-22T06:33:21.353Z,7.10
2019-05-22T06:35:52.403Z,8.73
2019-05-22T06:39:01.123Z,6.80
2019-05-22T06:41:36.270Z,7.73
2019-05-22T06:44:58.470Z,6.83
2019-05-22T06:47:29.232Z,8.07
2019-05-22T06:50:00.089Z,6.27
2019-05-22T06:52:30.502Z,9.77
2019-05-22T06:55:06.391Z,8.37
2019-05-22T06:57:37.049Z,10.03
2019-05-22T07:00:15.176Z,7.43
2019-05-22T07:02:46.311Z,6.93
2019-05-22T07:05:22.465Z,6.97
2019-05-22T07:07:53.643Z,5.83
2019-05-22T07:10:27.329Z,8.23
2019-05-22T07:12:59.816Z,7.97
2019-05-22T07:15:43.548Z,6.10
2019-05-22T07:18:18.119Z,7.33
2019-05-22T07:20:49.630Z,7.93
2019-05-22T07:23:25.769Z,7.23
2019-05-22T07:26:01.429Z,7.70
2019-05-22T07:28:36.355Z,7.73
2019-05-22T07:31:07.808Z,7.23
2019-05-22T07:33:39.106Z,6.50
2019-05-22T07:36:16.488Z,7.20
2019-05-22T07:38:52.114Z,11.53
2019-05-22T07:41:22.830Z,7.27
2019-05-22T07:43:55.339Z,6.33
2019-05-22T07:46:25.823Z,5.57
2019-05-22T07:48:59.234Z,6.80
2019-05-22T07:51:32.623Z,6.37
2019-05-22T07:54:27.984Z,6.60
2019-05-22T07:57:06.261Z,5.00
2019-05-22T07:59:37.033Z,5.77
2019-05-22T08:02:22.500Z,6.10
2019-05-22T08:04:56.469Z,10.20
2019-05-22T08:07:28.748Z,7.43
2019-05-22T08:10:02.091Z,5.87
2019-05-22T08:12:33.126Z,5.13
2019-05-22T08:15:05.200Z,8.30
2019-05-22T08:17:47.760Z,5.63
2019-05-22T08:20:18.720Z,8.07
2019-05-22T08:22:54.978Z,6.13
2019-05-22T08:25:29.142Z,5.93
2019-05-22T08:28:03.220Z,4.63
2019-05-22T08:30:33.530Z,7.70
2019-05-22T08:33:08.889Z,5.30
2019-05-22T08:35:39.648Z,6.80
2019-05-22T08:38:13.045Z,6.00
2019-05-22T08:40:45.490Z,9.97
2019-05-22T08:43:18.326Z,6.87
2019-05-22T08:45:51.629Z,5.33
2019-05-22T08:48:26.363Z,5.10
2019-05-22T08:50:57.487Z,4.77
2019-05-22T08:53:46.027Z,7.23
2019-05-22T08:56:09.239Z,6.50
2019-05-22T08:58:48.302Z,7.10
2019-05-22T09:01:21.920Z,7.43
2019-05-22T09:03:57.940Z,7.23
2019-05-22T09:06:28.848Z,5.70
2019-05-22T09:08:59.260Z,4.50
2019-05-22T09:11:29.646Z,6.13
2019-05-22T09:14:03.568Z,7.30
2019-05-22T09:16:39.279Z,5.17
2019-05-22T09:19:12.348Z,5.77
2019-05-22T09:21:45.954Z,10.57
2019-05-22T09:24:17.793Z,9.03
2019-05-22T09:26:51.589Z,5.87
2019-05-22T09:29:22.835Z,7.97
2019-05-22T09:31:53.584Z,6.00
2019-05-22T09:34:32.082Z,6.93
2019-05-22T09:37:08.697Z,5.57
2019-05-22T09:39:39.417Z,5.83
2019-05-22T09:42:11.453Z,8.30
2019-05-22T09:44:43.327Z,6.50
2019-05-22T09:47:28.813Z,7.07
2019-05-22T09:50:04.083Z,7.37
2019-05-22T09:52:37.623Z,6.40
2019-05-22T09:55:13.479Z,5.70
2019-05-22T09:57:44.203Z,6.30
2019-05-22T10:00:19.021Z,5.23
2019-05-22T10:02:52.459Z,5.57
2019-05-22T10:05:27.954Z,7.13
2019-05-22T10:08:07.924Z,7.07
2019-05-22T10:10:40.321Z,5.10
2019-05-22T10:13:14.934Z,6.27
2019-05-22T10:15:48.849Z,6.37
2019-05-22T10:18:19.498Z,5.37
2019-05-22T10:20:53.504Z,8.17
2019-05-22T10:23:26.961Z,6.57
2019-05-22T10:26:11.326Z,6.73
2019-05-22T10:28:45.360Z,6.07
2019-05-22T10:31:17.933Z,6.33
2019-05-22T10:33:54.662Z,6.17
2019-05-22T10:36:29.549Z,6.67
2019-05-22T10:39:00.197Z,8.37
2019-05-22T10:41:32.811Z,7.43
2019-05-22T10:44:13.745Z,7.07
2019-05-22T10:46:51.323Z,5.50
2019-05-22T10:49:31.677Z,5.60
2019-05-22T10:52:06.856Z,5.73
2019-05-22T10:54:38.913Z,9.23
2019-05-22T10:57:15.085Z,7.43
2019-05-22T10:59:50.483Z,5.30
2019-05-22T11:02:23.863Z,9.13
2019-05-22T11:04:57.640Z,6.33
2019-05-22T11:07:37.677Z,5.57
2019-05-22T11:10:15.708Z,8.50
2019-05-22T11:12:47.530Z,5.97
2019-05-22T11:15:22.261Z,8.27
2019-05-22T11:17:59.082Z,5.27
2019-05-22T11:20:30.461Z,5.37
2019-05-22T11:23:02.407Z,5.00
2019-05-22T11:25:33.447Z,5.50
2019-05-22T11:28:04.346Z,5.07
2019-05-22T11:30:38.103Z,6.13
2019-05-22T11:33:11.116Z,5.10
2019-05-22T11:35:48.867Z,5.93
2019-05-22T11:38:32.813Z,5.17
2019-05-22T11:41:08.382Z,5.63
2019-05-22T11:43:44.870Z,8.00
2019-05-22T11:46:19.835Z,4.63
2019-05-22T11:48:52.631Z,5.23
2019-05-22T11:51:28.610Z,4.03
2019-05-22T11:54:09.230Z,5.80
2019-05-22T11:56:35.133Z,5.07
2019-05-22T11:59:17.011Z,4.20
2019-05-22T12:01:50.369Z,3.87
2019-05-22T12:04:25.405Z,3.50
2019-05-22T12:07:05.500Z,4.90
2019-05-22T12:09:56.479Z,4.17
2019-05-22T12:12:34.992Z,5.00
2019-05-22T12:15:44.154Z,6.07
2019-05-22T12:18:35.064Z,4.23
2019-05-22T12:21:12.223Z,4.23
2019-05-22T12:24:29.330Z,4.80
2019-05-22T12:27:13.952Z,4.33
2019-05-22T12:30:27.115Z,4.03
2019-05-22T12:33:19.567Z,4.60
2019-05-22T12:36:02.234Z,4.03
2019-05-22T12:38:37.939Z,5.67
2019-05-22T12:41:13.295Z,6.20
2019-05-22T12:43:53.018Z,4.60
2019-05-22T12:46:23.854Z,4.47
2019-05-22T12:48:55.053Z,5.37
2019-05-22T12:51:30.163Z,5.03
2019-05-22T12:54:05.618Z,4.40
2019-05-22T12:56:51.662Z,5.10
2019-05-22T12:59:25.073Z,4.13
2019-05-22T13:02:05.137Z,4.33
2019-05-22T13:04:46.421Z,5.00
2019-05-22T13:13:34.037Z,5.13
2019-05-22T13:19:22.293Z,8.03
2019-05-22T13:22:11.302Z,4.37
2019-05-22T13:24:58.698Z,5.27
2019-05-22T13:28:38.883Z,6.70
2019-05-22T13:31:37.508Z,4.43
2019-05-22T13:34:28.874Z,6.03
2019-05-22T13:55:41.165Z,4.47
2019-05-22T14:02:18.464Z,7.17
2019-05-22T14:05:41.972Z,7.40
2019-05-22T14:08:16.188Z,6.00
2019-05-22T14:10:50.043Z,7.40
2019-05-22T14:13:24.759Z,5.47
2019-05-22T14:16:04.150Z,5.97
2019-05-22T14:18:43.958Z,4.77
2019-05-22T14:21:32.559Z,7.23
2019-05-22T14:24:18.603Z,5.43
2019-05-22T14:26:58.217Z,6.87
2019-05-22T14:29:51.549Z,5.17
2019-05-22T14:32:30.080Z,6.90
2019-05-22T14:35:06.087Z,4.27
2019-05-22T14:37:46.363Z,5.53
2019-05-22T14:40:23.350Z,4.23
2019-05-22T14:42:55.537Z,6.13
2019-05-22T14:45:34.890Z,4.40
2019-05-22T14:48:08.032Z,4.90
2019-05-22T14:50:43.656Z,5.63
2019-05-22T14:53:22.225Z,6.10
2019-05-22T14:56:00.659Z,4.23
2019-05-22T14:58:47.392Z,6.70
2019-05-22T15:01:25.082Z,5.77
2019-05-22T15:03:57.422Z,5.80
2019-05-22T15:06:32.624Z,4.80
2019-05-22T15:09:10.700Z,3.60
2019-05-22T15:11:52.676Z,4.47
2019-05-22T15:15:05.034Z,6.20
2019-05-22T15:17:56.057Z,5.77
2019-05-22T15:21:02.698Z,4.80
2019-05-22T15:23:44.085Z,6.93
2019-05-22T15:26:28.211Z,4.70
2019-05-22T15:33:04.325Z,5.10
2019-05-22T15:36:06.570Z,8.17
2019-05-22T15:38:39.154Z,6.37
2019-05-22T15:41:22.512Z,7.37
2019-05-22T15:43:59.115Z,5.40
2019-05-22T15:46:41.552Z,7.43
2019-05-22T15:49:19.746Z,6.67
2019-05-22T15:51:54.244Z,7.13
2019-05-22T15:54:33.038Z,7.67
2019-05-22T15:57:22.904Z,6.10
2019-05-22T16:00:07.401Z,8.40
2019-05-22T16:02:44.682Z,9.03
2019-05-22T16:05:31.421Z,6.70
2019-05-22T16:08:14.273Z,7.80
2019-05-22T16:11:28.186Z,5.47
2019-05-22T16:15:12.396Z,7.20
2019-05-22T16:18:10.971Z,7.80
2019-05-22T16:21:09.444Z,6.03
2019-05-22T16:24:49.855Z,5.90
2019-05-22T16:28:13.665Z,5.67
2019-05-22T16:31:35.732Z,7.83
2019-05-22T16:44:35.514Z,9.50
2019-05-22T16:48:04.949Z,6.23
2019-05-22T16:54:37.401Z,7.00
2019-05-22T16:57:16.004Z,6.27
2019-05-22T16:59:52.567Z,10.37
2019-05-22T17:02:28.634Z,8.63
2019-05-22T17:05:08.691Z,8.80
2019-05-22T17:07:41.795Z,8.47
2019-05-22T17:10:30.271Z,13.67
2019-05-22T17:13:26.483Z,7.63
2019-05-22T17:16:14.314Z,7.00
2019-05-22T17:19:27.006Z,9.03
2019-05-22T17:21:58.832Z,7.77
2019-05-22T17:24:40.044Z,7.97
2019-05-22T17:31:52.808Z,10.47
2019-05-22T17:35:03.254Z,7.47
2019-05-22T17:38:16.746Z,6.20
2019-05-22T17:40:56.378Z,9.97
2019-05-22T17:48:40.743Z,8.80
2019-05-22T17:52:05.074Z,8.50
2019-05-22T17:55:32.108Z,7.37
2019-05-22T18:06:26.474Z,8.63
2019-05-22T18:09:48.436Z,7.40
2019-05-22T18:12:38.049Z,8.77
2019-05-22T18:15:20.788Z,8.17
2019-05-22T18:21:48.620Z,10.40
2019-05-22T18:24:20.562Z,12.23
2019-05-22T18:27:28.316Z,8.50
2019-05-22T18:30:36.510Z,7.60
2019-05-22T18:44:31.458Z,6.60
2019-05-22T18:47:45.912Z,8.70
2019-05-22T18:50:21.502Z,7.33
2019-05-22T18:53:20.686Z,6.83
2019-05-22T18:56:25.423Z,7.17
2019-05-22T18:59:27.146Z,8.23
2019-05-22T19:02:05.359Z,9.20
2019-05-22T19:04:43.404Z,11.37
2019-05-22T19:07:16.292Z,8.40
2019-05-22T19:09:48.753Z,10.10
2019-05-22T19:12:24.895Z,7.13
2019-05-22T19:14:59.203Z,9.00
2019-05-22T19:17:37.822Z,7.53
2019-05-22T19:20:10.619Z,7.70
2019-05-22T19:22:58.324Z,7.63
2019-05-22T19:25:13.687Z,10.83
2019-05-22T19:27:50.536Z,8.10
2019-05-22T19:30:31.399Z,9.17
2019-05-22T19:32:59.547Z,9.77
2019-05-22T19:35:37.603Z,10.27
2019-05-22T19:38:12.097Z,9.83
2019-05-22T19:40:46.011Z,8.57
2019-05-22T19:43:17.948Z,8.57
2019-05-22T19:45:55.985Z,10.23
2019-05-22T19:48:27.110Z,8.87
2019-05-22T19:51:05.881Z,12.33
2019-05-22T19:53:40.055Z,9.17
2019-05-22T19:56:14.010Z,11.67
2019-05-22T19:58:59.154Z,9.73
2019-05-22T20:01:48.117Z,9.33
2019-05-22T20:04:54.874Z,8.93
2019-05-22T20:07:56.699Z,8.77
2019-05-22T20:10:56.205Z,8.63
2019-05-22T20:14:02.996Z,13.40
2019-05-22T20:16:43.830Z,11.47
2019-05-22T20:19:58.162Z,10.57
2019-05-22T20:22:29.017Z,8.97
2019-05-22T20:25:39.545Z,10.53
2019-05-22T20:28:50.536Z,10.53
2019-05-22T20:32:49.021Z,10.37
2019-05-22T20:36:03.909Z,10.47
2019-05-22T20:38:37.653Z,11.73
2019-05-22T20:41:09.898Z,9.27
2019-05-22T20:43:44.487Z,12.07
2019-05-22T20:46:22.139Z,9.70
2019-05-22T20:48:58.565Z,10.17
2019-05-22T20:51:45.831Z,8.93
2019-05-22T20:54:18.295Z,9.53
2019-05-22T20:56:54.933Z,9.97
2019-05-22T20:59:30.483Z,11.20
2019-05-22T21:02:05.857Z,11.87
2019-05-22T21:04:36.781Z,10.83
2019-05-22T21:07:09.940Z,11.10
2019-05-22T21:09:43.423Z,16.70
2019-05-22T21:12:19.336Z,11.90
2019-05-22T21:14:53.172Z,14.90
2019-05-22T21:17:31.616Z,14.80
2019-05-22T21:20:07.389Z,13.07
2019-05-22T21:22:39.940Z,16.07
2019-05-22T21:25:16.801Z,15.77
2019-05-22T21:27:51.410Z,15.63
2019-05-22T21:30:29.955Z,14.40
2019-05-22T21:33:02.820Z,14.37
2019-05-22T21:35:40.403Z,14.47
2019-05-22T21:38:16.965Z,16.63
2019-05-22T21:40:48.036Z,13.10
2019-05-22T21:43:19.773Z,17.27
2019-05-22T21:45:54.103Z,18.13
2019-05-22T21:48:28.320Z,16.90
2019-05-22T21:51:00.576Z,15.43
2019-05-22T21:53:36.754Z,15.50
2019-05-22T21:56:12.244Z,18.67
2019-05-22T21:58:46.438Z,18.30
2019-05-22T22:01:39.092Z,15.47
2019-05-22T22:04:20.825Z,17.90
2019-05-22T22:06:56.615Z,19.47
2019-05-22T22:09:28.856Z,18.47
2019-05-22T22:12:10.479Z,21.27
2019-05-22T22:14:41.620Z,23.70
2019-05-22T22:17:14.108Z,19.43
2019-05-22T22:19:50.245Z,22.33
2019-05-22T22:22:28.507Z,20.67
2019-05-22T22:24:59.052Z,21.33
2019-05-22T22:27:33.803Z,22.83
2019-05-22T22:30:10.322Z,21.17
2019-05-22T22:32:54.101Z,24.17
2019-05-22T22:35:22.169Z,23.63
2019-05-22T22:37:55.476Z,22.80
2019-05-22T22:40:27.430Z,21.47
2019-05-22T22:43:01.459Z,24.77
2019-05-22T22:45:50.829Z,23.07
2019-05-22T22:48:26.764Z,22.77
2019-05-22T22:50:58.310Z,21.03
2019-05-22T22:53:31.035Z,22.60
2019-05-22T22:56:01.739Z,27.20
2019-05-22T22:58:32.510Z,23.57
2019-05-22T23:01:06.271Z,25.87
2019-05-22T23:03:38.639Z,25.53
2019-05-22T23:06:11.935Z,21.50
2019-05-22T23:08:45.272Z,24.43
2019-05-22T23:11:15.875Z,24.83
2019-05-22T23:13:50.636Z,34.03
2019-05-22T23:16:23.560Z,28.20
2019-05-22T23:19:32.512Z,26.50
2019-05-22T23:22:05.929Z,29.37
2019-05-22T23:24:41.439Z,32.37
2019-05-22T23:27:17.973Z,32.20
2019-05-22T23:29:48.568Z,28.53
2019-05-22T23:32:20.608Z,31.93
2019-05-22T23:34:55.735Z,27.90
2019-05-22T23:37:26.566Z,30.50
2019-05-22T23:40:02.236Z,31.10
2019-05-22T23:42:39.580Z,29.47
2019-05-22T23:45:15.408Z,27.27
2019-05-22T23:48:24.924Z,27.10
2019-05-22T23:50:55.694Z,29.47
2019-05-22T23:53:27.205Z,29.37
2019-05-22T23:56:04.440Z,29.90
2019-05-22T23:58:49.823Z,31.77
